Time;durP1;ratioP1;P1;durP2;ratioP2;P2;SDS_P1;SDS_P2;PMS_P1;PMS_P2;Temp;Humidity;BMP_temperature;BMP_pressure;BME280_temperature;BME280_humidity;BME280_pressure;Samples;Min_cycle;Max_cycle;Signal;HPM_P1;HPM_P2
2022/04/10 00:00:38;;;;;;;2.33;1.27;;;17.10;56.40;;;;;;4911794;28;94254;-68
2022/04/10 00:03:04;;;;;;;4.05;1.40;;;17.10;56.50;;;;;;4914159;28;93359;-69
2022/04/10 00:05:29;;;;;;;3.97;1.70;;;17.00;56.50;;;;;;4914487;28;95202;-69
2022/04/10 00:07:55;;;;;;;3.30;1.40;;;17.10;56.50;;;;;;4914582;28;94411;-69
2022/04/10 00:10:21;;;;;;;3.13;1.48;;;17.00;56.40;;;;;;4914296;28;92976;-69
2022/04/10 00:12:46;;;;;;;2.97;1.60;;;17.00;56.40;;;;;;4914528;28;93676;-69
2022/04/10 00:15:12;;;;;;;2.70;1.38;;;17.00;57.40;;;;;;4913450;28;100493;-69
2022/04/10 00:17:41;;;;;;;2.78;1.50;;;17.00;56.30;;;;;;4914698;28;92787;-68
2022/04/10 00:20:09;;;;;;;2.88;1.20;;;17.00;56.30;;;;;;4914596;28;93140;-68
2022/04/10 00:22:46;;;;;;;2.72;1.38;;;17.00;56.30;;;;;;4914482;28;94966;-69
2022/04/10 00:25:14;;;;;;;2.63;1.52;;;17.00;56.20;;;;;;4913711;28;92659;-70
2022/04/10 00:27:40;;;;;;;4.85;1.83;;;16.90;56.20;;;;;;4914462;28;93075;-69
2022/04/10 00:30:10;;;;;;;2.75;1.50;;;17.00;56.30;;;;;;4912497;28;96685;-69
2022/04/10 00:32:36;;;;;;;3.30;1.40;;;17.00;56.20;;;;;;4914080;28;97913;-69
2022/04/10 00:35:03;;;;;;;2.90;1.23;;;17.00;56.30;;;;;;4914123;28;92766;-69
2022/04/10 00:37:28;;;;;;;3.22;1.40;;;17.00;56.20;;;;;;4913639;28;93067;-69
2022/04/10 00:39:54;;;;;;;4.85;1.30;;;17.00;56.20;;;;;;4914405;28;98502;-69
2022/04/10 00:42:20;;;;;;;1.95;1.00;;;17.00;57.10;;;;;;4913826;28;92864;-68
2022/04/10 00:44:45;;;;;;;2.80;1.50;;;17.00;56.20;;;;;;4913408;28;92955;-69
2022/04/10 00:47:11;;;;;;;4.68;1.60;;;16.90;56.20;;;;;;4915123;28;92258;-68
2022/04/10 00:49:37;;;;;;;2.67;1.50;;;16.90;56.10;;;;;;4913149;28;105751;-68
2022/04/10 00:52:06;;;;;;;3.20;1.17;;;16.90;56.10;;;;;;4913904;28;93729;-68
2022/04/10 00:54:34;;;;;;;2.08;1.10;;;16.90;56.10;;;;;;4912568;28;94907;-69
2022/04/10 00:57:01;;;;;;;3.77;1.47;;;16.90;56.10;;;;;;4915100;28;92406;-69
2022/04/10 00:59:29;;;;;;;3.58;1.45;;;16.90;56.10;;;;;;4914289;28;94826;-69
2022/04/10 01:01:55;;;;;;;3.15;1.33;;;16.90;56.00;;;;;;4912749;28;94231;-68
2022/04/10 01:04:20;;;;;;;3.40;1.40;;;16.90;56.00;;;;;;4914300;28;93024;-68
2022/04/10 01:06:47;;;;;;;3.95;1.40;;;16.90;56.00;;;;;;4896272;28;93196;-69
2022/04/10 01:09:14;;;;;;;3.75;1.50;;;16.90;56.00;;;;;;4913684;28;93217;-69
2022/04/10 01:11:40;;;;;;;3.38;1.15;;;16.90;56.00;;;;;;4914497;28;94277;-68
2022/04/10 01:14:07;;;;;;;2.78;1.30;;;16.80;55.90;;;;;;4913388;28;93058;-69
2022/04/10 01:16:34;;;;;;;4.05;1.30;;;16.80;55.90;;;;;;4915635;28;92845;-68
2022/04/10 01:19:03;;;;;;;3.53;1.38;;;16.90;55.90;;;;;;4914339;28;95531;-69
2022/04/10 01:21:33;;;;;;;2.83;1.27;;;16.80;55.90;;;;;;4918512;28;96330;-69
2022/04/10 01:23:59;;;;;;;3.53;1.35;;;16.80;55.90;;;;;;4915363;28;92621;-69
2022/04/10 01:26:27;;;;;;;2.88;1.42;;;16.80;55.80;;;;;;4914834;28;92475;-69
2022/04/10 01:29:01;;;;;;;3.78;1.48;;;16.80;55.90;;;;;;4913831;28;93113;-69
2022/04/10 01:31:29;;;;;;;3.45;1.45;;;16.80;55.80;;;;;;4912723;28;93604;-68
2022/04/10 01:34:00;;;;;;;2.97;1.33;;;16.80;55.80;;;;;;4914118;28;92481;-68
2022/04/10 01:36:28;;;;;;;2.63;1.50;;;16.80;55.90;;;;;;4914316;28;92054;-69
2022/04/10 01:38:55;;;;;;;3.33;1.33;;;16.80;55.80;;;;;;4911865;28;94180;-68
2022/04/10 01:41:27;;;;;;;1.90;1.23;;;16.80;55.80;;;;;;4913689;28;94770;-69
2022/04/10 01:43:55;;;;;;;2.70;1.30;;;16.80;55.80;;;;;;4912545;28;95134;-69
2022/04/10 01:46:22;;;;;;;2.20;1.00;;;16.70;55.70;;;;;;4913438;28;92555;-69
2022/04/10 01:48:48;;;;;;;3.22;1.50;;;16.70;55.80;;;;;;4914047;28;93310;-68
2022/04/10 01:51:14;;;;;;;4.72;1.45;;;16.70;55.80;;;;;;4912638;28;93714;-69
2022/04/10 01:53:39;;;;;;;2.70;1.20;;;16.70;55.80;;;;;;4913896;28;92503;-69
2022/04/10 01:56:07;;;;;;;3.03;1.48;;;16.70;55.70;;;;;;4913439;28;92581;-69
2022/04/10 01:58:39;;;;;;;3.70;1.27;;;16.70;55.70;;;;;;4911873;28;95093;-69
2022/04/10 02:01:06;;;;;;;2.70;1.33;;;16.70;55.70;;;;;;4913927;28;94370;-69
2022/04/10 02:03:32;;;;;;;2.97;1.38;;;16.70;55.70;;;;;;4912954;28;93003;-69
2022/04/10 02:06:00;;;;;;;3.33;1.30;;;16.70;55.70;;;;;;4914079;28;92543;-69
2022/04/10 02:08:26;;;;;;;2.58;1.10;;;16.70;55.70;;;;;;4913494;28;96374;-69
2022/04/10 02:10:52;;;;;;;3.15;1.40;;;16.70;55.70;;;;;;4912918;28;96198;-69
2022/04/10 02:13:19;;;;;;;1.60;0.88;;;16.70;55.70;;;;;;4913020;28;93073;-68
2022/04/10 02:15:44;;;;;;;2.72;1.13;;;16.70;55.60;;;;;;4912636;28;92963;-70
2022/04/10 02:18:10;;;;;;;2.17;1.17;;;16.70;55.60;;;;;;4912275;28;92578;-70
2022/04/10 02:20:36;;;;;;;2.67;1.10;;;16.60;55.60;;;;;;4911589;28;93835;-70
2022/04/10 02:23:02;;;;;;;2.78;1.30;;;16.60;55.50;;;;;;4912540;28;93160;-70
2022/04/10 02:25:29;;;;;;;3.17;1.10;;;16.70;55.60;;;;;;4912850;28;92181;-70
2022/04/10 02:27:54;;;;;;;2.08;0.98;;;16.60;55.50;;;;;;4912439;28;93508;-70
2022/04/10 02:30:20;;;;;;;2.72;1.05;;;16.60;55.50;;;;;;4912318;28;93902;-70
2022/04/10 02:32:46;;;;;;;2.03;1.10;;;16.60;55.50;;;;;;4911868;28;95341;-70
2022/04/10 02:35:11;;;;;;;2.72;1.17;;;16.60;55.50;;;;;;4912506;28;93042;-70
2022/04/10 02:37:38;;;;;;;2.53;1.38;;;16.60;55.50;;;;;;4912773;28;93153;-70
2022/04/10 02:40:05;;;;;;;3.55;1.15;;;16.60;55.50;;;;;;4911699;28;92973;-70
2022/04/10 02:42:33;;;;;;;3.00;1.25;;;16.60;55.40;;;;;;4911267;28;93037;-70
2022/04/10 02:44:59;;;;;;;2.08;1.20;;;16.60;55.30;;;;;;4913103;28;92765;-70
2022/04/10 02:47:25;;;;;;;2.15;1.20;;;16.60;55.40;;;;;;4911902;28;93062;-70
2022/04/10 02:49:50;;;;;;;2.65;1.00;;;16.60;55.30;;;;;;4912779;28;92751;-70
2022/04/10 02:52:16;;;;;;;3.22;1.00;;;16.60;55.30;;;;;;4911949;28;102122;-69
2022/04/10 02:54:42;;;;;;;2.65;1.13;;;16.60;55.40;;;;;;4911908;28;93163;-69
2022/04/10 02:57:07;;;;;;;2.42;0.90;;;16.60;55.40;;;;;;4910731;28;98817;-70
2022/04/10 02:59:34;;;;;;;2.85;1.30;;;16.60;55.30;;;;;;4911278;28;104991;-70
2022/04/10 03:01:59;;;;;;;2.92;1.10;;;16.60;55.30;;;;;;4912531;28;92937;-69
2022/04/10 03:04:25;;;;;;;2.08;0.98;;;16.60;55.30;;;;;;4911763;28;92568;-69
2022/04/10 03:06:51;;;;;;;3.20;1.25;;;16.60;55.30;;;;;;4912264;28;93130;-70
2022/04/10 03:09:17;;;;;;;2.00;0.95;;;16.60;55.30;;;;;;4912244;28;94615;-70
2022/04/10 03:11:44;;;;;;;2.55;1.10;;;16.60;55.30;;;;;;4912058;28;92892;-69
2022/04/10 03:14:10;;;;;;;2.45;1.10;;;16.50;55.20;;;;;;4913474;28;92519;-69
2022/04/10 04:20:57;;;;;;;2.45;0.93;;;16.40;55.10;;;;;;4835447;29;96437;-70
2022/04/10 04:23:22;;;;;;;2.72;0.90;;;16.30;55.10;;;;;;4840028;29;92715;-70
2022/04/10 04:25:48;;;;;;;2.03;1.00;;;16.40;55.10;;;;;;4838927;29;94256;-70
2022/04/10 04:28:13;;;;;;;1.40;0.70;;;16.40;55.10;;;;;;4838103;29;108101;-70
2022/04/10 04:30:39;;;;;;;1.65;1.00;;;16.40;54.90;;;;;;4839777;29;92542;-70
2022/04/10 04:33:05;;;;;;;2.63;1.05;;;16.40;54.90;;;;;;4839253;29;92569;-70
2022/04/10 04:35:31;;;;;;;2.05;1.08;;;16.40;54.80;;;;;;4838962;29;93005;-70
2022/04/10 04:37:57;;;;;;;2.35;0.80;;;16.40;54.80;;;;;;4839032;29;93825;-70
2022/04/10 04:40:23;;;;;;;2.58;0.98;;;16.40;54.80;;;;;;4838341;29;92492;-70
2022/04/10 04:42:49;;;;;;;2.60;1.10;;;16.40;54.80;;;;;;4839381;29;92679;-70
2022/04/10 04:45:16;;;;;;;2.60;0.93;;;16.40;54.80;;;;;;4837576;29;96559;-70
2022/04/10 04:47:42;;;;;;;2.05;1.00;;;16.40;54.80;;;;;;4838552;29;96191;-70
2022/04/10 04:50:08;;;;;;;3.95;1.00;;;16.40;54.70;;;;;;4838559;29;92951;-71
2022/04/10 04:52:34;;;;;;;2.63;1.00;;;16.40;55.10;;;;;;4837340;29;92562;-70
2022/04/10 04:55:00;;;;;;;1.83;0.80;;;16.40;55.20;;;;;;4837613;29;94336;-71
2022/04/10 04:57:25;;;;;;;2.28;0.80;;;16.40;55.10;;;;;;4837673;29;93774;-71
2022/04/10 04:59:51;;;;;;;1.50;0.70;;;16.40;55.00;;;;;;4838589;29;93107;-71
2022/04/10 05:02:16;;;;;;;3.90;0.90;;;16.40;55.20;;;;;;4837746;29;97156;-71
2022/04/10 05:04:42;;;;;;;2.17;0.85;;;16.40;55.10;;;;;;4838388;29;92998;-72
2022/04/10 05:07:08;;;;;;;3.70;0.95;;;16.40;55.00;;;;;;4838066;29;100212;-72
2022/04/10 05:09:34;;;;;;;3.10;1.00;;;16.40;55.10;;;;;;4837062;29;95033;-72
2022/04/10 05:12:00;;;;;;;4.18;0.90;;;16.40;55.10;;;;;;4852854;29;92564;-71
2022/04/10 05:14:26;;;;;;;1.48;0.70;;;16.40;55.10;;;;;;4838781;29;94676;-69
2022/04/10 05:16:54;;;;;;;6.63;0.90;;;16.40;54.90;;;;;;4838377;29;92832;-69
2022/04/10 05:19:21;;;;;;;1.75;1.00;;;16.40;55.20;;;;;;4845565;28;92806;-70
2022/04/10 05:21:47;;;;;;;4.32;0.93;;;16.40;55.20;;;;;;4857347;29;92571;-70
2022/04/10 05:24:12;;;;;;;3.05;0.90;;;16.40;55.20;;;;;;4857102;29;102538;-70
2022/04/10 05:26:38;;;;;;;3.50;1.00;;;16.40;55.20;;;;;;4856697;29;99192;-71
2022/04/10 05:29:05;;;;;;;1.92;0.90;;;16.50;55.20;;;;;;4856468;29;92980;-70
2022/04/10 05:31:30;;;;;;;4.43;0.80;;;16.50;55.50;;;;;;4856808;29;92578;-72
2022/04/10 05:33:56;;;;;;;2.78;0.80;;;16.50;55.30;;;;;;4856171;29;95439;-71
2022/04/10 05:36:21;;;;;;;2.50;0.80;;;16.50;55.30;;;;;;4855543;29;96794;-70
2022/04/10 05:38:47;;;;;;;2.90;0.98;;;16.50;55.30;;;;;;4856876;29;92542;-71
2022/04/10 05:41:13;;;;;;;1.67;0.90;;;16.50;55.20;;;;;;4856782;29;92552;-72
2022/04/10 05:43:39;;;;;;;2.55;0.82;;;16.50;55.20;;;;;;4857099;29;94459;-70
2022/04/10 05:46:05;;;;;;;2.00;0.90;;;16.50;55.30;;;;;;4857201;29;93743;-70
2022/04/10 05:48:31;;;;;;;2.15;0.82;;;16.50;55.20;;;;;;4856369;29;93406;-70
2022/04/10 05:50:57;;;;;;;3.83;0.88;;;16.50;55.20;;;;;;4856343;29;91780;-70
2022/04/10 05:53:24;;;;;;;2.90;0.85;;;16.50;55.20;;;;;;4855802;29;94093;-70
2022/04/10 05:55:50;;;;;;;1.67;0.88;;;16.50;55.20;;;;;;4856720;29;94325;-68
2022/04/10 05:58:15;;;;;;;2.03;0.77;;;16.50;55.30;;;;;;4855176;29;94989;-69
2022/04/10 06:00:41;;;;;;;1.85;1.00;;;16.50;55.20;;;;;;4856408;29;93009;-68
2022/04/10 06:03:06;;;;;;;2.22;0.80;;;16.50;55.30;;;;;;4855652;29;94298;-68
2022/04/10 06:05:32;;;;;;;1.10;0.80;;;16.50;56.00;;;;;;4855625;29;93553;-68
2022/04/10 06:07:58;;;;;;;2.00;0.90;;;16.60;56.00;;;;;;4856413;29;92930;-70
2022/04/10 06:10:23;;;;;;;1.52;0.80;;;16.70;55.90;;;;;;4856573;29;92483;-70
2022/04/10 06:12:49;;;;;;;1.40;0.60;;;16.80;55.70;;;;;;4856138;29;94179;-71
2022/04/10 06:15:21;;;;;;;1.30;0.60;;;17.00;55.50;;;;;;4855993;29;92913;-70
2022/04/10 06:17:47;;;;;;;1.40;0.70;;;17.10;55.40;;;;;;4856548;29;92567;-70
2022/04/10 06:20:13;;;;;;;1.00;0.60;;;17.30;55.30;;;;;;4856187;29;92815;-69
2022/04/10 06:22:38;;;;;;;1.02;0.70;;;17.40;55.20;;;;;;4853174;29;95581;-69
2022/04/10 06:25:04;;;;;;;1.98;0.60;;;17.50;55.00;;;;;;4854816;29;96854;-71
2022/04/10 06:27:32;;;;;;;3.38;1.00;;;17.60;54.60;;;;;;4856585;29;93036;-71
2022/04/10 06:29:58;;;;;;;4.40;1.02;;;17.70;54.30;;;;;;4855893;29;94233;-70
2022/04/10 08:00:17;;;;;;;1.75;0.70;;;17.50;54.60;;;;;;4206590;23;93722;-69
2022/04/10 08:02:48;;;;;;;2.42;0.70;;;17.40;54.70;;;;;;4874308;28;92919;-69
2022/04/10 08:05:14;;;;;;;3.35;0.70;;;17.40;54.60;;;;;;4871828;28;92593;-69
2022/04/10 08:07:41;;;;;;;2.42;0.98;;;17.40;54.60;;;;;;4873756;28;93023;-69
2022/04/10 08:10:08;;;;;;;2.38;0.85;;;17.40;54.60;;;;;;4872708;28;95841;-69
2022/04/10 08:12:34;;;;;;;3.63;0.90;;;17.40;54.60;;;;;;4872687;28;95023;-69
2022/04/10 08:15:00;;;;;;;2.92;0.82;;;17.40;54.50;;;;;;4872627;28;92587;-70
2022/04/10 08:17:25;;;;;;;2.65;0.90;;;17.40;54.50;;;;;;4870751;28;92937;-69
2022/04/10 08:19:51;;;;;;;2.03;0.70;;;17.40;54.60;;;;;;4872702;28;93811;-69
2022/04/10 08:22:24;;;;;;;4.40;0.90;;;17.40;54.60;;;;;;4872112;28;94168;-69
2022/04/10 08:24:49;;;;;;;4.45;0.90;;;17.40;54.60;;;;;;4875802;28;93058;-70
2022/04/10 08:27:15;;;;;;;2.63;0.70;;;17.40;54.70;;;;;;4875890;28;92382;-69
2022/04/10 08:29:41;;;;;;;2.30;0.75;;;17.30;54.60;;;;;;4875424;28;93236;-70
2022/04/10 08:32:07;;;;;;;4.25;0.90;;;17.30;54.70;;;;;;4876091;28;93873;-69
2022/04/10 08:34:32;;;;;;;1.63;0.80;;;17.30;54.70;;;;;;4874739;28;95036;-69
2022/04/10 08:37:03;;;;;;;2.00;0.80;;;17.30;54.60;;;;;;4875709;28;93284;-70
2022/04/10 08:39:29;;;;;;;3.40;0.80;;;17.30;54.70;;;;;;4875422;28;94691;-69
2022/04/10 08:42:00;;;;;;;4.03;0.70;;;17.30;54.70;;;;;;4875679;28;93783;-69
2022/04/10 08:44:27;;;;;;;2.08;0.70;;;17.30;54.60;;;;;;4875813;28;93163;-69
2022/04/10 08:46:52;;;;;;;2.08;0.70;;;17.30;54.70;;;;;;4875946;28;94283;-70
2022/04/10 08:49:20;;;;;;;2.53;0.90;;;17.20;54.70;;;;;;4875230;28;93277;-69
2022/04/10 08:51:46;;;;;;;1.08;0.57;;;17.20;54.70;;;;;;4876230;28;92980;-69
2022/04/10 08:54:13;;;;;;;2.13;0.80;;;17.20;54.70;;;;;;4877075;28;92574;-69
2022/04/10 08:56:40;;;;;;;5.50;0.90;;;17.20;54.70;;;;;;4875993;28;93117;-69
2022/04/10 08:59:05;;;;;;;4.50;0.70;;;17.20;54.70;;;;;;4874564;28;95847;-69
2022/04/10 09:01:31;;;;;;;3.72;0.90;;;17.20;54.80;;;;;;4875579;28;95143;-69
2022/04/10 09:03:56;;;;;;;2.15;0.75;;;17.20;54.80;;;;;;4874876;28;101366;-69
2022/04/10 09:06:22;;;;;;;3.72;0.98;;;17.20;54.80;;;;;;4875272;28;92777;-69
2022/04/10 09:08:48;;;;;;;2.95;1.00;;;17.10;54.70;;;;;;4874756;28;93218;-69
2022/04/10 09:11:14;;;;;;;2.47;0.88;;;17.10;54.70;;;;;;4874345;28;93618;-70
2022/04/10 09:13:47;;;;;;;1.85;0.70;;;17.10;54.80;;;;;;4875378;28;92928;-69
2022/04/10 09:16:18;;;;;;;3.55;0.70;;;17.10;54.80;;;;;;4875822;28;91840;-69
2022/04/10 09:18:55;;;;;;;2.72;0.77;;;17.10;54.80;;;;;;4875330;28;93063;-69
2022/04/10 09:21:25;;;;;;;3.08;0.80;;;17.10;54.90;;;;;;4873780;28;94352;-69
2022/04/10 09:23:55;;;;;;;3.20;0.82;;;17.10;54.90;;;;;;4874145;28;95444;-69
2022/04/10 09:26:21;;;;;;;2.20;1.00;;;17.10;54.80;;;;;;4875050;28;92447;-69
2022/04/10 09:28:48;;;;;;;2.10;0.77;;;17.10;54.90;;;;;;4875349;28;95740;-70
2022/04/10 09:31:30;;;;;;;2.90;0.77;;;17.00;54.80;;;;;;4874860;28;94256;-69
2022/04/10 09:34:02;;;;;;;2.70;1.00;;;17.10;54.80;;;;;;4875190;28;92895;-69
2022/04/10 09:36:33;;;;;;;3.65;0.88;;;17.10;54.80;;;;;;4875280;28;92579;-69
2022/04/10 09:38:59;;;;;;;2.78;0.80;;;17.10;54.70;;;;;;4874424;28;95158;-70
2022/04/10 09:41:25;;;;;;;2.58;0.73;;;17.00;54.80;;;;;;4875957;28;92787;-69
2022/04/10 09:43:51;;;;;;;2.00;0.82;;;17.00;54.70;;;;;;4875546;28;93209;-69
2022/04/10 09:46:16;;;;;;;1.30;0.77;;;17.10;54.70;;;;;;4875615;28;93062;-69
2022/04/10 09:48:42;;;;;;;2.35;0.82;;;17.10;54.70;;;;;;4875069;28;95424;-69
2022/04/10 09:51:10;;;;;;;1.85;1.10;;;17.10;55.70;;;;;;4876615;28;95537;-69
2022/04/10 09:53:36;;;;;;;3.20;0.73;;;17.10;54.50;;;;;;4875447;28;93125;-69
2022/04/10 09:56:04;;;;;;;2.83;0.93;;;17.10;54.50;;;;;;4874876;28;92502;-69
2022/04/10 09:58:31;;;;;;;3.78;0.80;;;17.10;54.30;;;;;;4873910;28;96470;-69
2022/04/10 10:00:58;;;;;;;2.00;0.80;;;17.20;54.40;;;;;;4875394;28;96309;-69
2022/04/10 10:03:26;;;;;;;4.20;1.00;;;17.10;54.30;;;;;;4874541;28;92975;-69
2022/04/10 10:05:53;;;;;;;2.38;0.80;;;17.20;54.40;;;;;;4876309;28;92126;-69
2022/04/10 10:08:19;;;;;;;2.08;0.80;;;17.20;54.20;;;;;;4874781;28;94393;-69
2022/04/10 10:10:45;;;;;;;3.33;0.90;;;17.10;54.10;;;;;;4875025;28;94539;-69
2022/04/10 10:13:14;;;;;;;2.35;0.70;;;17.20;54.20;;;;;;4873941;28;95567;-69
2022/04/10 10:15:41;;;;;;;2.60;0.90;;;17.20;54.10;;;;;;4873600;28;92599;-69
2022/04/10 10:18:09;;;;;;;2.35;0.88;;;17.20;54.00;;;;;;4874246;28;95783;-69
2022/04/10 10:20:36;;;;;;;2.38;0.90;;;17.20;53.90;;;;;;4874881;28;92700;-69
2022/04/10 10:23:04;;;;;;;1.73;0.88;;;17.20;53.90;;;;;;4874421;28;92692;-69
2022/04/10 10:25:36;;;;;;;2.28;0.80;;;17.20;53.90;;;;;;4875276;28;93509;-69
2022/04/10 10:28:27;;;;;;;2.35;0.90;;;17.30;53.90;;;;;;4873647;28;93909;-69
2022/04/10 10:31:20;;;;;;;1.50;0.80;;;17.20;53.70;;;;;;4875206;28;92668;-68
2022/04/10 10:33:52;;;;;;;2.28;0.70;;;17.30;53.80;;;;;;4874924;28;92452;-68
2022/04/10 10:36:26;;;;;;;2.45;0.90;;;17.20;53.80;;;;;;4875114;28;92675;-70
2022/04/10 10:38:54;;;;;;;2.08;0.93;;;17.30;53.80;;;;;;4873669;28;95675;-70
2022/04/10 10:41:20;;;;;;;1.83;0.85;;;17.30;53.70;;;;;;4874094;28;95203;-69
2022/04/10 10:43:47;;;;;;;1.63;0.85;;;17.30;53.60;;;;;;4875129;28;93085;-70
2022/04/10 10:46:24;;;;;;;2.67;0.90;;;17.30;53.60;;;;;;4873544;28;92548;-70
2022/04/10 10:49:18;;;;;;;2.00;0.70;;;17.30;53.50;;;;;;4873809;28;93062;-70
2022/04/10 10:51:49;;;;;;;2.28;0.70;;;17.30;53.40;;;;;;4873551;28;94012;-70
2022/04/10 10:54:18;;;;;;;1.88;0.75;;;17.40;53.40;;;;;;4874050;28;92547;-70
2022/04/10 10:56:46;;;;;;;2.53;1.00;;;17.40;53.30;;;;;;4874775;28;91905;-70
2022/04/10 10:59:35;;;;;;;1.77;0.73;;;17.40;53.40;;;;;;4873320;28;94184;-70
2022/04/10 11:02:13;;;;;;;1.55;0.70;;;17.40;53.30;;;;;;4873674;28;93846;-70
2022/04/10 11:04:41;;;;;;;2.42;0.70;;;17.30;53.20;;;;;;4873232;28;94980;-70
2022/04/10 11:07:11;;;;;;;4.03;0.88;;;17.30;53.30;;;;;;4874583;28;92576;-70
2022/04/10 11:09:55;;;;;;;1.25;0.70;;;17.30;53.40;;;;;;4874133;28;95899;-69
2022/04/10 11:12:23;;;;;;;2.10;0.80;;;17.40;53.30;;;;;;4872996;28;93999;-70
2022/04/10 11:14:51;;;;;;;2.53;0.88;;;17.30;53.40;;;;;;4874005;28;92831;-71
2022/04/10 11:17:18;;;;;;;1.58;0.60;;;17.40;53.40;;;;;;4873457;28;92611;-70
2022/04/10 11:20:04;;;;;;;2.38;0.90;;;17.50;53.40;;;;;;4874015;28;93165;-70
2022/04/10 11:22:48;;;;;;;1.20;0.68;;;17.60;53.20;;;;;;4873705;28;93862;-70
2022/04/10 11:25:15;;;;;;;;;;;17.70;53.00;;;;;;4874516;28;92553;-71
2022/04/10 11:27:47;;;;;;;3.28;1.10;;;17.80;54.20;;;;;;4875667;28;92578;-69
2022/04/10 11:30:15;;;;;;;2.00;0.73;;;17.90;52.80;;;;;;4872933;28;95581;-69
2022/04/10 11:32:45;;;;;;;2.55;0.75;;;18.00;52.60;;;;;;4874855;28;95550;-70
2022/04/10 11:35:15;;;;;;;24.70;16.13;;;18.10;52.40;;;;;;4874251;28;93120;-70
2022/04/10 11:37:44;;;;;;;47.95;32.08;;;18.30;52.20;;;;;;4874846;28;92691;-70
2022/04/10 11:40:11;;;;;;;53.95;36.65;;;18.40;52.30;;;;;;4873900;28;94644;-70
2022/04/10 11:42:37;;;;;;;58.53;38.97;;;18.50;52.20;;;;;;4873483;28;94112;-71
2022/04/10 11:45:03;;;;;;;59.70;41.08;;;18.60;52.10;;;;;;4873175;28;92581;-70
2022/04/10 11:47:29;;;;;;;60.83;41.75;;;18.70;52.10;;;;;;4872723;28;92093;-70
2022/04/10 11:49:56;;;;;;;65.03;40.42;;;18.70;52.10;;;;;;4873104;28;93206;-70
2022/04/10 11:52:22;;;;;;;61.22;41.22;;;18.80;52.20;;;;;;4872979;28;93334;-72
2022/04/10 11:54:50;;;;;;;60.40;39.50;;;18.80;52.30;;;;;;4871369;28;100662;-70
2022/04/10 11:57:16;;;;;;;61.20;40.33;;;18.80;52.40;;;;;;4873383;28;93137;-73
2022/04/10 11:59:43;;;;;;;55.78;38.10;;;18.80;53.70;;;;;;4887225;28;94584;-73
2022/04/10 12:02:14;;;;;;;61.40;39.78;;;18.80;52.80;;;;;;4895696;28;94360;-70
2022/04/10 12:04:41;;;;;;;56.42;37.95;;;18.80;52.90;;;;;;4895117;28;92902;-71
2022/04/10 12:07:29;;;;;;;58.60;38.08;;;18.80;53.10;;;;;;4895203;28;92537;-71
2022/04/10 12:09:54;;;;;;;58.60;37.88;;;18.80;53.30;;;;;;4895694;28;93148;-71
2022/04/10 12:12:34;;;;;;;54.83;36.60;;;18.80;53.50;;;;;;4894959;28;93606;-71
2022/04/10 12:15:00;;;;;;;58.63;36.10;;;18.80;53.70;;;;;;4895408;28;92807;-70
2022/04/10 12:17:26;;;;;;;54.85;34.92;;;18.90;53.80;;;;;;4894611;28;93005;-72
2022/04/10 12:19:57;;;;;;;53.67;35.47;;;18.90;54.70;;;;;;4894619;28;110074;-71
2022/04/10 12:22:24;;;;;;;51.85;33.72;;;18.90;53.80;;;;;;4894685;28;97526;-72
2022/04/10 12:24:55;;;;;;;53.63;33.75;;;19.00;53.60;;;;;;4894770;28;92720;-71
2022/04/10 12:27:22;;;;;;;50.95;32.72;;;19.00;53.60;;;;;;4894678;28;92671;-72
2022/04/10 12:29:48;;;;;;;48.88;31.52;;;19.00;53.60;;;;;;4894439;28;95023;-71
2022/04/10 12:32:15;;;;;;;46.88;32.15;;;19.10;53.60;;;;;;4894151;28;93970;-72
2022/04/10 12:34:44;;;;;;;48.30;32.00;;;19.10;53.70;;;;;;4894791;28;92489;-72
2022/04/10 12:37:14;;;;;;;47.95;31.17;;;19.10;53.50;;;;;;4895282;28;92300;-72
2022/04/10 12:39:41;;;;;;;44.20;30.75;;;19.20;53.50;;;;;;4894230;28;93658;-71
2022/04/10 12:42:14;;;;;;;49.72;30.88;;;19.20;53.60;;;;;;4894355;28;93951;-71
2022/04/10 12:44:41;;;;;;;47.35;29.45;;;19.30;53.50;;;;;;4893321;28;94863;-72
2022/04/10 12:47:08;;;;;;;44.95;29.65;;;19.30;53.50;;;;;;4895875;28;92698;-70
2022/04/10 12:49:35;;;;;;;40.60;27.27;;;19.30;53.50;;;;;;4894245;28;93306;-71
2022/04/10 12:52:03;;;;;;;43.17;26.52;;;19.30;53.50;;;;;;4894808;28;93893;-71
2022/04/10 12:54:33;;;;;;;47.05;26.88;;;19.40;53.50;;;;;;4893632;28;93783;-70
2022/04/10 12:57:01;;;;;;;40.45;25.63;;;19.50;53.40;;;;;;4894209;28;93250;-70
2022/04/10 12:59:38;;;;;;;37.10;24.38;;;19.60;53.30;;;;;;4885898;28;93782;-69
2022/04/10 13:02:24;;;;;;;37.80;24.05;;;19.50;53.10;;;;;;4875174;28;92948;-68
2022/04/10 13:04:54;;;;;;;35.38;24.15;;;19.50;53.20;;;;;;4874351;28;92636;-71
2022/04/10 13:07:20;;;;;;;35.83;23.45;;;19.40;53.30;;;;;;4874853;28;92513;-69
2022/04/10 13:10:06;;;;;;;36.92;22.60;;;19.40;53.40;;;;;;4871844;28;96729;-70
2022/04/10 13:12:33;;;;;;;37.10;22.98;;;19.40;53.50;;;;;;4874298;28;96135;-70
2022/04/10 13:14:59;;;;;;;31.23;21.63;;;19.30;53.70;;;;;;4873546;28;92580;-68
2022/04/10 13:17:37;;;;;;;33.10;21.48;;;19.30;53.80;;;;;;4874698;28;92420;-69
2022/04/10 13:20:13;;;;;;;35.45;21.35;;;19.20;53.70;;;;;;4873196;28;93222;-69
2022/04/10 13:22:40;;;;;;;35.15;21.48;;;19.20;53.70;;;;;;4873307;28;94973;-69
2022/04/10 13:25:07;;;;;;;30.75;20.63;;;19.20;53.90;;;;;;4875326;28;92929;-69
2022/04/10 13:27:33;;;;;;;32.45;20.60;;;19.20;53.90;;;;;;4876192;28;92138;-69
2022/04/10 13:29:59;;;;;;;29.02;20.05;;;19.20;53.90;;;;;;4874672;28;94248;-69
2022/04/10 13:32:25;;;;;;;30.73;19.65;;;19.20;53.90;;;;;;4874295;28;92999;-70
2022/04/10 13:34:52;;;;;;;27.73;18.95;;;19.20;53.80;;;;;;4872689;28;95484;-69
2022/04/10 13:37:18;;;;;;;32.85;19.67;;;19.20;53.80;;;;;;4874564;28;92645;-69
2022/04/10 13:39:45;;;;;;;28.98;19.15;;;19.30;53.70;;;;;;4874128;28;94547;-69
2022/04/10 13:42:11;;;;;;;27.48;18.23;;;19.40;53.60;;;;;;4874368;28;93285;-70
2022/04/10 13:44:37;;;;;;;28.08;18.33;;;19.40;53.50;;;;;;4873592;28;92809;-69
2022/04/10 13:47:03;;;;;;;25.38;17.98;;;19.40;53.30;;;;;;4874713;28;92562;-69
2022/04/10 13:49:29;;;;;;;28.85;19.08;;;19.50;53.30;;;;;;4874121;28;94184;-69
2022/04/10 13:51:54;;;;;;;26.38;18.30;;;19.50;53.20;;;;;;4874503;28;92823;-69
2022/04/10 13:54:20;;;;;;;25.95;17.33;;;19.50;53.20;;;;;;4874702;28;92466;-70
2022/04/10 13:56:46;;;;;;;26.70;17.15;;;19.50;53.30;;;;;;4875146;28;93051;-70
2022/04/10 13:59:12;;;;;;;26.45;17.08;;;19.50;53.20;;;;;;4871999;28;96514;-69
2022/04/10 14:01:38;;;;;;;26.77;16.98;;;19.50;53.30;;;;;;4874227;28;93990;-69
2022/04/10 14:04:03;;;;;;;28.85;17.02;;;19.50;53.40;;;;;;4873680;28;92600;-69
2022/04/10 14:06:30;;;;;;;24.40;16.40;;;19.40;53.30;;;;;;4874551;28;93035;-69
2022/04/10 14:08:58;;;;;;;24.83;16.42;;;19.50;53.30;;;;;;4873311;28;93077;-70
2022/04/10 14:11:26;;;;;;;25.95;16.17;;;19.50;53.30;;;;;;4873682;28;94753;-70
2022/04/10 14:13:53;;;;;;;24.63;15.93;;;19.50;53.40;;;;;;4873534;28;93455;-69
2022/04/10 14:16:19;;;;;;;23.70;16.15;;;19.50;53.30;;;;;;4873558;28;93511;-70
2022/04/10 14:18:45;;;;;;;24.60;16.50;;;19.50;53.30;;;;;;4873253;28;94212;-69
2022/04/10 14:21:11;;;;;;;23.55;16.00;;;19.50;53.30;;;;;;4873340;28;94507;-69
2022/04/10 14:23:37;;;;;;;23.08;15.20;;;19.50;53.30;;;;;;4871038;28;94916;-69
2022/04/10 14:26:03;;;;;;;21.60;14.45;;;19.50;53.30;;;;;;4873070;28;92570;-69
2022/04/10 14:28:28;;;;;;;24.20;15.23;;;19.50;53.30;;;;;;4871125;28;93310;-73
2022/04/10 14:30:54;;;;;;;22.23;14.55;;;19.50;53.70;;;;;;4873249;28;93984;-69
2022/04/10 14:33:20;;;;;;;23.20;14.75;;;19.50;53.60;;;;;;4874139;28;92556;-69
2022/04/10 14:35:46;;;;;;;19.55;13.85;;;19.50;53.60;;;;;;4874117;28;92779;-69
2022/04/10 14:38:13;;;;;;;22.25;14.15;;;19.60;53.90;;;;;;4872721;28;93139;-69
2022/04/10 14:40:42;;;;;;;22.48;14.38;;;19.60;53.80;;;;;;4873586;28;93991;-68
2022/04/10 14:43:07;;;;;;;32.13;14.15;;;19.60;53.50;;;;;;4873676;28;92697;-67
2022/04/10 14:45:33;;;;;;;22.30;13.60;;;19.60;53.80;;;;;;4872906;28;92557;-69
2022/04/10 14:47:58;;;;;;;22.20;13.93;;;19.70;53.60;;;;;;4871914;28;102843;-67
2022/04/10 14:50:24;;;;;;;20.50;13.43;;;19.70;53.60;;;;;;4872752;28;96333;-69
2022/04/10 14:52:50;;;;;;;18.15;12.55;;;19.70;53.70;;;;;;4874088;28;93133;-68
2022/04/10 14:55:16;;;;;;;19.95;13.00;;;19.70;53.60;;;;;;4874415;28;92676;-68
2022/04/10 14:57:42;;;;;;;21.30;12.38;;;19.70;53.80;;;;;;4872381;28;94511;-67
2022/04/10 15:00:11;;;;;;;18.08;12.65;;;19.70;54.00;;;;;;4873164;28;93698;-67
2022/04/10 15:02:36;;;;;;;19.15;12.35;;;19.80;54.20;;;;;;4873327;28;92534;-67
2022/04/10 15:05:05;;;;;;;21.77;12.18;;;19.80;54.20;;;;;;4873977;28;92171;-67
2022/04/10 15:07:34;;;;;;;18.10;11.80;;;19.80;54.00;;;;;;4872875;28;93283;-68
2022/04/10 15:10:00;;;;;;;24.40;12.82;;;19.80;53.70;;;;;;4874076;28;93876;-70
2022/04/10 15:12:28;;;;;;;20.27;12.18;;;19.80;54.00;;;;;;4874747;28;96630;-68
2022/04/10 15:14:54;;;;;;;20.25;12.18;;;19.80;54.00;;;;;;4876180;28;92714;-68